TimeCST,TemperatureF,Dew PointF,Humidity,Sea Level PressureIn,VisibilityMPH,Wind Direction,Wind SpeedMPH,Gust SpeedMPH,PrecipitationIn,Events,Conditions,WindDirDegrees,DateUTC
12:52 AM,-9.0,-17.0,68,30.45,10.0,West,6.9,-,N/A,,Scattered Clouds,270,2014-01-05 06:52:00
1:15 AM,-9.0,-16.1,71,30.30,10.0,West,4.6,-,N/A,,Overcast,270,2014-01-05 07:15:00
1:28 AM,-8.0,-16.1,68,30.30,10.0,West,8.1,-,N/A,,Overcast,280,2014-01-05 07:28:00
1:52 AM,-9.0,-16.1,71,30.46,10.0,NW,8.1,-,N/A,,Mostly Cloudy,310,2014-01-05 07:52:00
2:00 AM,-9.0,-16.1,71,30.31,10.0,WNW,9.2,-,N/A,,Mostly Cloudy,300,2014-01-05 08:00:00
2:08 AM,-9.0,-16.1,71,30.31,10.0,WNW,11.5,-,N/A,,Scattered Clouds,300,2014-01-05 08:08:00
2:52 AM,-9.0,-16.1,71,30.48,10.0,NW,10.4,-,N/A,,Clear,310,2014-01-05 08:52:00
3:52 AM,-9.9,-17.0,71,30.49,10.0,West,4.6,-,N/A,,Partly Cloudy,280,2014-01-05 09:52:00
4:52 AM,-9.9,-17.0,71,30.49,10.0,WNW,10.4,-,N/A,,Overcast,290,2014-01-05 10:52:00
5:52 AM,-8.0,-18.9,59,30.51,10.0,NNW,19.6,-,N/A,,Overcast,330,2014-01-05 11:52:00
6:52 AM,-8.0,-18.0,61,30.53,10.0,NW,15.0,24.2,N/A,,Overcast,320,2014-01-05 12:52:00
7:52 AM,-9.0,-20.9,56,30.56,10.0,NW,24.2,34.5,N/A,,Overcast,310,2014-01-05 13:52:00
8:35 AM,-11.0,-18.0,71,30.42,4.0,NW,23.0,29.9,N/A,,Haze,320,2014-01-05 14:35:00
8:52 AM,-11.0,-22.0,58,30.61,10.0,NNW,20.7,34.5,N/A,,Overcast,330,2014-01-05 14:52:00
9:15 AM,-11.9,-22.0,61,30.46,1.8,NW,24.2,35.7,0.00,Snow,Light Snow,320,2014-01-05 15:15:00
9:30 AM,-11.9,-20.9,64,30.48,0.5,NNW,25.3,38.0,0.00,Snow,Snow,330,2014-01-05 15:30:00
9:52 AM,-13.0,-20.0,71,30.68,0.5,NW,17.3,-,0.00,Snow,Snow,320,2014-01-05 15:52:00
10:08 AM,-13.0,-20.9,68,30.51,0.5,NW,21.9,32.2,0.00,Snow,Snow,310,2014-01-05 16:08:00
10:12 AM,-13.0,-23.1,61,30.51,1.0,NW,20.7,29.9,0.00,Snow,Light Snow,310,2014-01-05 16:12:00
10:24 AM,-14.1,-25.1,58,30.52,3.0,NW,23.0,32.2,0.00,,Haze,310,2014-01-05 16:24:00
10:37 AM,-14.1,-26.0,55,30.52,2.5,NW,20.7,35.7,0.00,,Haze,320,2014-01-05 16:37:00
10:40 AM,-14.1,-26.0,55,30.52,4.0,NW,23.0,35.7,0.00,,Haze,310,2014-01-05 16:40:00
10:52 AM,-14.1,-26.0,55,30.71,4.0,NW,33.4,42.6,0.00,,Haze,320,2014-01-05 16:52:00
11:43 AM,-14.1,-26.0,55,30.54,1.8,NW,35.7,43.7,N/A,,Haze,320,2014-01-05 17:43:00
11:52 AM,-14.1,-27.0,52,30.72,3.0,NW,21.9,47.2,0.00,,Haze,310,2014-01-05 17:52:00
12:19 PM,-14.1,-26.0,55,30.53,7.0,NW,32.2,42.6,N/A,,Mostly Cloudy,320,2014-01-05 18:19:00
12:43 PM,-14.1,-26.0,55,30.52,2.0,NW,28.8,41.4,N/A,,Haze,310,2014-01-05 18:43:00
12:52 PM,-14.1,-26.0,55,30.70,8.0,NW,20.7,40.3,N/A,,Overcast,320,2014-01-05 18:52:00
1:52 PM,-14.1,-24.0,61,30.69,5.0,WNW,18.4,36.8,N/A,,Haze,300,2014-01-05 19:52:00
2:52 PM,-13.0,-24.0,58,30.69,3.0,NW,25.3,39.1,N/A,,Haze,310,2014-01-05 20:52:00
3:52 PM,-14.1,-24.0,61,30.70,6.0,NW,20.7,32.2,0.00,,Overcast,310,2014-01-05 21:52:00
4:52 PM,-15.0,-25.1,61,30.70,7.0,WNW,26.5,39.1,0.00,,Overcast,300,2014-01-05 22:52:00
5:52 PM,-15.0,-24.0,64,30.70,8.0,NW,26.5,33.4,N/A,,Overcast,310,2014-01-05 23:52:00
6:21 PM,-15.0,-24.0,64,30.51,5.0,NW,23.0,32.2,N/A,,Haze,310,2014-01-06 00:21:00
6:48 PM,-14.8,-23.8,64,30.50,10.0,WNW,23.0,32.2,N/A,,Overcast,300,2014-01-06 00:48:00
6:52 PM,-15.0,-25.1,61,30.68,10.0,NW,26.5,34.5,N/A,,Overcast,310,2014-01-06 00:52:00
7:19 PM,-15.0,-24.0,64,30.50,10.0,WNW,19.6,27.6,N/A,,Mostly Cloudy,300,2014-01-06 01:19:00
7:33 PM,-15.0,-24.0,64,30.50,5.0,WNW,18.4,28.8,0.00,,Overcast,300,2014-01-06 01:33:00
7:44 PM,-15.0,-24.0,64,30.50,6.0,NW,23.0,31.1,0.00,,Overcast,310,2014-01-06 01:44:00
7:52 PM,-15.0,-24.0,64,30.68,4.0,WNW,21.9,32.2,0.00,,Overcast,300,2014-01-06 01:52:00
8:52 PM,-15.0,-24.0,64,30.66,10.0,WNW,19.6,28.8,0.00,,Mostly Cloudy,300,2014-01-06 02:52:00
9:22 PM,-14.1,-23.1,64,30.47,8.0,WNW,18.4,26.5,N/A,,Mostly Cloudy,300,2014-01-06 03:22:00
9:47 PM,-14.8,-23.8,64,30.45,10.0,WNW,19.6,27.6,N/A,,Overcast,300,2014-01-06 03:47:00
9:52 PM,-14.1,-23.1,64,30.64,10.0,WNW,18.4,27.6,N/A,,Overcast,300,2014-01-06 03:52:00
10:52 PM,-14.1,-22.0,68,30.64,9.0,NW,13.8,29.9,N/A,,Mostly Cloudy,310,2014-01-06 04:52:00
11:20 PM,-14.1,-20.9,71,30.45,2.5,WNW,15.0,-,0.00,,Overcast,300,2014-01-06 05:20:00
11:25 PM,-14.1,-20.9,71,30.44,3.0,WNW,16.1,-,0.00,,Haze,300,2014-01-06 05:25:00
11:52 PM,-14.1,-20.9,71,30.63,5.0,NW,15.0,27.6,0.00,,Haze,310,2014-01-06 05:52:00